createdAt,value
2022-10-16T00:00:54.057Z,3.60
2022-10-16T00:04:12.027Z,6.40
2022-10-16T00:07:45.466Z,6.90
2022-10-16T00:11:55.938Z,6.90
2022-10-16T00:17:47.500Z,4.60
2022-10-16T00:19:15.950Z,5.20
2022-10-16T00:20:46.613Z,4.70
2022-10-16T00:22:45.500Z,7.20
2022-10-16T00:24:18.681Z,6.90
2022-10-16T00:29:14.606Z,6.90
2022-10-16T00:31:17.638Z,5.10
2022-10-16T00:33:18.503Z,8.40
2022-10-16T00:35:16.636Z,4.60
2022-10-16T00:42:08.904Z,7.00
2022-10-16T00:50:10.256Z,5.20
2022-10-16T00:51:41.011Z,7.90
2022-10-16T00:54:34.365Z,3.30
2022-10-16T01:04:34.525Z,4.50
2022-10-16T01:06:07.105Z,7.50
2022-10-16T01:07:37.063Z,6.30
2022-10-16T01:10:35.629Z,6.80
2022-10-16T01:14:08.788Z,9.00
2022-10-16T01:18:00.562Z,5.60
2022-10-16T01:20:23.509Z,4.00
2022-10-16T01:22:41.611Z,8.10
2022-10-16T01:25:16.563Z,3.70
2022-10-16T01:27:57.557Z,4.20
2022-10-16T01:29:48.186Z,6.70
2022-10-16T01:31:49.712Z,6.90
2022-10-16T01:37:14.313Z,6.20
2022-10-16T01:41:56.935Z,3.30
2022-10-16T01:43:52.982Z,4.60
2022-10-16T01:47:15.369Z,6.30
2022-10-16T01:49:57.161Z,6.40
2022-10-16T01:51:56.070Z,7.00
2022-10-16T01:55:48.908Z,5.80
2022-10-16T01:57:20.792Z,9.90
2022-10-16T01:59:17.844Z,6.30
2022-10-16T02:01:11.206Z,4.70
2022-10-16T02:03:30.847Z,7.30
2022-10-16T02:07:32.298Z,6.90
2022-10-16T02:09:01.201Z,10.40
2022-10-16T02:11:00.373Z,7.80
2022-10-16T02:13:30.084Z,7.50
2022-10-16T02:16:36.187Z,8.40
2022-10-16T02:19:13.246Z,6.00
2022-10-16T02:22:55.477Z,6.80
2022-10-16T02:24:21.586Z,4.80
2022-10-16T02:26:13.285Z,6.50
2022-10-16T02:27:41.251Z,9.10
2022-10-16T02:31:22.178Z,5.80
2022-10-16T02:34:13.544Z,5.70
2022-10-16T02:36:13.177Z,4.40
2022-10-16T02:39:04.056Z,6.50
2022-10-16T02:41:52.005Z,7.10
2022-10-16T02:43:45.796Z,6.00
2022-10-16T03:06:59.159Z,4.20
2022-10-16T03:36:05.022Z,3.20
2022-10-16T03:39:23.179Z,3.40
2022-10-16T04:03:47.990Z,2.90
2022-10-16T05:27:11.227Z,4.30
2022-10-16T05:44:14.412Z,2.90
2022-10-16T06:15:23.568Z,3.90
2022-10-16T06:38:18.354Z,4.20
2022-10-16T06:43:58.797Z,3.20
2022-10-16T06:48:58.446Z,3.20
2022-10-16T06:50:28.423Z,9.00
2022-10-16T06:58:52.629Z,2.90
2022-10-16T07:02:31.404Z,4.30
2022-10-16T07:10:45.529Z,2.90
2022-10-16T07:13:36.505Z,4.30
2022-10-16T07:21:33.014Z,3.40
2022-10-16T07:24:15.262Z,3.90
2022-10-16T07:28:33.360Z,3.10
2022-10-16T07:34:13.590Z,6.70
2022-10-16T07:59:13.899Z,4.40
2022-10-16T08:03:26.161Z,2.90
2022-10-16T08:16:14.476Z,4.40
2022-10-16T08:18:42.342Z,4.30
2022-10-16T08:21:08.563Z,3.20
2022-10-16T08:23:07.282Z,6.60
2022-10-16T08:25:56.916Z,3.90
2022-10-16T08:28:14.663Z,2.90
2022-10-16T08:33:41.029Z,2.40
2022-10-16T08:37:06.576Z,5.40
2022-10-16T08:39:46.466Z,5.00
2022-10-16T09:21:03.499Z,4.80
2022-10-16T09:24:20.234Z,6.70
2022-10-16T09:26:49.094Z,3.10
2022-10-16T09:28:18.054Z,6.10
2022-10-16T09:30:18.135Z,6.40
2022-10-16T09:34:16.536Z,5.50
2022-10-16T09:35:46.371Z,6.40
2022-10-16T09:37:16.605Z,4.80
2022-10-16T09:38:52.077Z,4.80
2022-10-16T09:40:59.027Z,5.30
2022-10-16T09:42:49.874Z,8.30
2022-10-16T09:44:19.081Z,3.30
2022-10-16T09:45:48.698Z,4.20
2022-10-16T09:47:37.492Z,3.80
2022-10-16T09:49:07.383Z,1.90
2022-10-16T09:50:36.312Z,4.30
2022-10-16T09:52:25.200Z,3.20
2022-10-16T09:54:24.041Z,6.20
2022-10-16T09:55:52.965Z,4.20
2022-10-16T09:57:25.382Z,5.10
2022-10-16T10:00:22.709Z,6.20
2022-10-16T10:11:52.382Z,5.60
2022-10-16T10:13:39.300Z,6.70
2022-10-16T10:15:28.000Z,7.10
2022-10-16T10:18:15.908Z,3.30
2022-10-16T10:20:35.659Z,7.10
2022-10-16T10:22:37.398Z,10.90
2022-10-16T10:24:06.535Z,5.20
2022-10-16T10:26:06.573Z,5.50
2022-10-16T10:28:54.708Z,6.80
2022-10-16T10:30:28.341Z,8.10
2022-10-16T10:32:45.086Z,5.50
2022-10-16T10:34:14.004Z,6.10
2022-10-16T10:35:42.863Z,7.40
2022-10-16T10:46:07.349Z,7.60
2022-10-16T10:50:10.124Z,7.30
2022-10-16T10:51:40.204Z,8.70
2022-10-16T10:54:13.313Z,8.90
2022-10-16T10:56:12.294Z,7.20
2022-10-16T10:58:41.265Z,7.40
2022-10-16T11:00:10.527Z,4.40
2022-10-16T11:02:37.667Z,9.50
2022-10-16T11:04:25.724Z,5.80
2022-10-16T11:05:57.142Z,5.40
2022-10-16T11:08:46.771Z,8.90
2022-10-16T11:10:20.220Z,7.80
2022-10-16T11:12:58.017Z,4.90
2022-10-16T11:17:59.262Z,5.50
2022-10-16T11:20:47.734Z,11.30
2022-10-16T11:23:25.839Z,4.90
2022-10-16T11:25:29.709Z,6.50
2022-10-16T11:27:00.209Z,6.50
2022-10-16T11:29:49.635Z,6.90
2022-10-16T11:31:48.615Z,6.40
2022-10-16T11:33:17.318Z,11.10
2022-10-16T11:34:48.678Z,9.00
2022-10-16T11:37:16.587Z,5.10
2022-10-16T11:38:46.497Z,8.30
2022-10-16T11:40:16.499Z,5.80
2022-10-16T11:43:46.080Z,5.20
2022-10-16T11:46:34.801Z,4.10
2022-10-16T11:48:04.652Z,8.20
2022-10-16T11:49:34.320Z,11.80
2022-10-16T11:51:33.624Z,6.50
2022-10-16T11:53:02.589Z,9.60
2022-10-16T11:56:20.297Z,5.80
2022-10-16T11:58:19.207Z,9.00
2022-10-16T12:00:18.395Z,4.10
2022-10-16T12:01:52.847Z,9.70
2022-10-16T12:04:56.563Z,7.80
2022-10-16T12:07:16.238Z,9.00
2022-10-16T12:08:45.223Z,8.10
2022-10-16T12:11:34.781Z,9.30
2022-10-16T12:15:15.937Z,8.80
2022-10-16T12:17:30.150Z,6.90
2022-10-16T12:18:58.370Z,8.40
2022-10-16T12:20:57.529Z,5.60
2022-10-16T12:22:59.537Z,5.90
2022-10-16T12:28:23.524Z,10.10
2022-10-16T12:30:33.635Z,8.30
2022-10-16T12:32:19.278Z,6.70
2022-10-16T12:33:43.700Z,5.80
2022-10-16T12:36:44.852Z,5.80
2022-10-16T12:39:40.671Z,5.40
2022-10-16T12:41:13.175Z,6.90
2022-10-16T12:45:35.145Z,10.40
2022-10-16T12:47:06.101Z,9.90
2022-10-16T12:48:48.244Z,7.80
2022-10-16T12:51:13.678Z,6.20
2022-10-16T12:53:02.550Z,8.60
2022-10-16T12:56:04.002Z,5.40
2022-10-16T12:59:04.502Z,7.70
2022-10-16T13:03:27.309Z,11.80
2022-10-16T13:05:38.887Z,9.40
2022-10-16T13:07:27.197Z,9.90
2022-10-16T13:12:08.119Z,4.40
2022-10-16T13:14:16.045Z,6.80
2022-10-16T13:17:38.736Z,8.90
2022-10-16T13:19:30.467Z,8.80
2022-10-16T13:21:32.637Z,10.00
2022-10-16T13:24:19.883Z,8.00
2022-10-16T13:25:50.603Z,10.50
2022-10-16T13:28:55.161Z,8.30
2022-10-16T13:32:00.911Z,6.20
2022-10-16T13:34:41.122Z,8.50
2022-10-16T13:37:21.041Z,11.50
2022-10-16T13:41:42.199Z,7.80
2022-10-16T13:43:13.403Z,8.50
2022-10-16T13:45:01.995Z,5.20
2022-10-16T13:47:29.470Z,9.20
2022-10-16T13:49:47.764Z,8.00
2022-10-16T13:54:04.665Z,8.00
2022-10-16T13:57:27.621Z,8.60
2022-10-16T13:58:58.766Z,6.90
2022-10-16T14:00:27.928Z,11.90
2022-10-16T14:04:27.071Z,8.60
2022-10-16T14:05:54.793Z,10.60
2022-10-16T14:09:28.012Z,8.00
2022-10-16T14:12:16.894Z,8.50
2022-10-16T14:14:57.468Z,9.20
2022-10-16T14:16:27.016Z,9.30
2022-10-16T14:22:35.331Z,4.50
2022-10-16T14:24:27.833Z,11.60
2022-10-16T14:26:15.882Z,7.80
2022-10-16T14:30:21.356Z,9.70
2022-10-16T14:32:10.149Z,6.70
2022-10-16T14:34:58.540Z,6.40
2022-10-16T14:36:28.015Z,7.70
2022-10-16T14:38:04.717Z,6.80
2022-10-16T14:41:26.273Z,9.90
2022-10-16T14:42:54.077Z,6.90
2022-10-16T14:46:43.003Z,9.90
2022-10-16T14:49:44.250Z,10.60
2022-10-16T14:51:13.174Z,5.20
2022-10-16T14:52:41.030Z,10.10
2022-10-16T14:57:31.775Z,8.00
2022-10-16T14:59:32.529Z,8.50
2022-10-16T15:02:03.507Z,6.90
2022-10-16T15:03:32.892Z,10.70
2022-10-16T15:07:18.744Z,13.60
2022-10-16T15:11:37.258Z,5.80
2022-10-16T15:17:37.352Z,9.40
2022-10-16T15:19:06.266Z,9.30
2022-10-16T15:20:35.145Z,3.70
2022-10-16T15:22:23.894Z,11.00
2022-10-16T15:25:31.883Z,9.30
2022-10-16T15:27:20.640Z,7.00
2022-10-16T15:28:51.602Z,7.80
2022-10-16T15:32:10.100Z,7.30
2022-10-16T15:34:56.694Z,8.00
2022-10-16T15:39:40.468Z,9.60
2022-10-16T15:41:08.132Z,9.40
2022-10-16T15:42:58.336Z,11.90
2022-10-16T15:45:44.093Z,8.60
2022-10-16T15:47:13.136Z,9.90
2022-10-16T15:49:02.204Z,7.20
2022-10-16T15:51:22.872Z,9.60
2022-10-16T15:52:54.737Z,8.30
2022-10-16T15:54:23.393Z,10.60
2022-10-16T15:55:59.303Z,8.90
2022-10-16T16:01:37.365Z,12.40
2022-10-16T16:03:54.884Z,11.10
2022-10-16T16:05:25.320Z,17.10
2022-10-16T16:07:13.326Z,15.70
2022-10-16T16:09:42.301Z,13.00
2022-10-16T16:11:11.318Z,15.90
2022-10-16T16:13:29.130Z,17.90
2022-10-16T16:15:47.265Z,17.00
2022-10-16T16:17:16.183Z,12.30
2022-10-16T16:20:28.610Z,16.00
2022-10-16T16:22:48.777Z,15.00
2022-10-16T16:25:37.923Z,13.50
2022-10-16T16:28:13.353Z,12.20
2022-10-16T16:29:43.232Z,11.40
2022-10-16T16:31:12.158Z,11.20
2022-10-16T16:33:30.124Z,10.20
2022-10-16T16:37:01.281Z,9.50
2022-10-16T16:39:00.282Z,13.80
2022-10-16T16:44:33.086Z,8.40
2022-10-16T16:48:44.381Z,7.80
2022-10-16T16:52:06.387Z,9.40
2022-10-16T16:55:13.608Z,13.50
2022-10-16T16:57:01.711Z,12.10
2022-10-16T16:59:31.824Z,9.20
2022-10-16T17:01:37.303Z,13.80
2022-10-16T17:08:53.558Z,7.90
2022-10-16T17:14:10.851Z,10.60
2022-10-16T17:17:47.695Z,9.50
2022-10-16T17:19:16.564Z,16.10
2022-10-16T17:21:21.833Z,17.00
2022-10-16T17:23:23.247Z,17.20
2022-10-16T17:26:59.144Z,16.30
2022-10-16T17:28:25.486Z,21.00
2022-10-16T17:31:12.592Z,14.60
2022-10-16T17:33:32.278Z,16.10
2022-10-16T17:38:57.546Z,12.00
2022-10-16T17:40:26.844Z,15.60
2022-10-16T17:42:29.859Z,18.10
2022-10-16T17:44:22.797Z,15.30
2022-10-16T17:48:42.897Z,15.50
2022-10-16T17:51:14.446Z,19.00
2022-10-16T17:54:16.318Z,15.70
2022-10-16T17:57:34.862Z,15.90
2022-10-16T17:59:03.115Z,15.40
2022-10-16T18:05:04.037Z,15.60
2022-10-16T18:08:30.522Z,13.60
2022-10-16T18:14:21.846Z,18.70
2022-10-16T18:17:35.807Z,15.10
2022-10-16T18:21:56.313Z,19.50
2022-10-16T18:24:03.909Z,17.10
2022-10-16T18:25:34.731Z,14.80
2022-10-16T18:27:07.801Z,17.40
2022-10-16T18:28:50.088Z,15.70
2022-10-16T18:33:32.585Z,18.20
2022-10-16T18:38:56.118Z,13.30
2022-10-16T18:41:27.804Z,17.20
2022-10-16T18:49:01.363Z,17.30
2022-10-16T18:50:57.955Z,15.20
2022-10-16T18:55:50.308Z,17.30
2022-10-16T18:58:30.388Z,14.80
2022-10-16T19:00:24.121Z,15.60
2022-10-16T19:02:16.330Z,17.70
2022-10-16T19:05:39.906Z,11.80
2022-10-16T19:11:26.128Z,14.90
2022-10-16T19:14:07.818Z,13.90
2022-10-16T19:16:21.630Z,15.00
2022-10-16T19:19:52.829Z,16.60
2022-10-16T19:21:22.931Z,12.20
2022-10-16T19:24:18.332Z,12.80
2022-10-16T19:25:48.525Z,11.90
2022-10-16T19:29:28.404Z,14.90
2022-10-16T19:31:21.206Z,13.70
2022-10-16T19:34:11.580Z,11.00
2022-10-16T19:40:50.730Z,16.90
2022-10-16T19:44:14.372Z,10.50
2022-10-16T19:45:43.261Z,14.10
2022-10-16T19:47:22.204Z,14.30
2022-10-16T19:48:51.408Z,11.90
2022-10-16T19:52:05.183Z,13.40
2022-10-16T19:55:25.180Z,13.70
2022-10-16T20:00:23.020Z,10.80
2022-10-16T20:02:29.272Z,9.00
2022-10-16T20:04:28.340Z,11.70
2022-10-16T20:08:22.608Z,12.90
2022-10-16T20:10:15.074Z,10.30
2022-10-16T20:12:38.097Z,8.60
2022-10-16T20:14:26.172Z,11.80
2022-10-16T20:18:25.134Z,11.00
2022-10-16T20:21:28.678Z,13.60
2022-10-16T20:24:46.818Z,8.70
2022-10-16T20:27:23.791Z,8.30
2022-10-16T20:29:22.717Z,5.60
2022-10-16T20:32:31.163Z,9.20
2022-10-16T20:35:51.453Z,10.40
2022-10-16T20:38:59.578Z,10.40
2022-10-16T20:41:59.327Z,10.90
2022-10-16T20:49:39.329Z,8.70
2022-10-16T20:53:48.222Z,11.10
2022-10-16T20:57:07.176Z,10.00
2022-10-16T21:03:28.360Z,7.40
2022-10-16T21:06:48.246Z,8.40
2022-10-16T21:08:18.228Z,6.60
2022-10-16T21:10:30.675Z,10.70
2022-10-16T21:13:19.418Z,7.00
2022-10-16T21:16:56.088Z,7.10
2022-10-16T21:18:26.308Z,7.30
2022-10-16T21:21:11.911Z,10.00
2022-10-16T21:35:49.804Z,8.70
2022-10-16T21:37:21.010Z,9.30
2022-10-16T21:39:22.805Z,7.90
2022-10-16T21:45:34.035Z,6.80
2022-10-16T21:50:42.153Z,7.10
2022-10-16T21:54:04.744Z,7.80
2022-10-16T21:59:02.874Z,8.40
2022-10-16T22:01:42.803Z,8.20
2022-10-16T22:03:32.388Z,8.90
2022-10-16T22:08:16.304Z,8.60
2022-10-16T22:10:06.986Z,9.40
2022-10-16T22:11:37.820Z,7.20
2022-10-16T22:20:28.151Z,9.00
2022-10-16T22:23:20.376Z,8.40
2022-10-16T22:24:54.129Z,10.70
2022-10-16T22:26:43.929Z,8.30
2022-10-16T22:28:16.489Z,11.60
2022-10-16T22:34:12.417Z,9.50
2022-10-16T22:37:46.339Z,10.00
2022-10-16T22:41:43.303Z,10.20
2022-10-16T22:42:51.329Z,8.00
2022-10-16T22:44:51.850Z,6.20
2022-10-16T22:46:27.629Z,7.40
2022-10-16T22:48:31.900Z,6.60
2022-10-16T22:50:19.676Z,10.40
2022-10-16T22:52:13.100Z,8.80
2022-10-16T22:54:38.650Z,9.20
2022-10-16T22:57:43.625Z,6.80
2022-10-16T23:01:17.027Z,8.40
2022-10-16T23:04:28.920Z,7.10
2022-10-16T23:13:37.528Z,7.50
2022-10-16T23:15:05.655Z,7.30
2022-10-16T23:19:26.528Z,11.70
2022-10-16T23:20:56.111Z,9.10
2022-10-16T23:24:47.228Z,8.00
2022-10-16T23:26:19.119Z,10.00
2022-10-16T23:28:17.183Z,10.30
2022-10-16T23:30:41.788Z,8.20
2022-10-16T23:33:15.502Z,10.30
2022-10-16T23:37:12.675Z,9.60
2022-10-16T23:38:43.786Z,8.90
2022-10-16T23:40:11.568Z,11.80
2022-10-16T23:45:31.591Z,11.90
2022-10-16T23:52:08.241Z,9.90
2022-10-16T23:56:22.555Z,10.00
2022-10-16T23:58:42.741Z,10.60
